Time;durP1;ratioP1;P1;durP2;ratioP2;P2;SDS_P1;SDS_P2;PMS_P1;PMS_P2;Temp;Humidity;BMP_temperature;BMP_pressure;BME280_temperature;BME280_humidity;BME280_pressure;Samples;Min_cycle;Max_cycle;Signal;HPM_P1;HPM_P2
2022/04/30 00:00:10;;;;;;;;;;;;;;;18.32;70.51;101555.31;7411001;19;1621;-55
2022/04/30 00:02:39;;;;;;;;;;;;;;;18.28;70.68;101561.84;7407551;19;1750;-56
2022/04/30 00:05:08;;;;;;;;;;;;;;;18.31;70.55;101566.16;7410141;19;1721;-55
2022/04/30 00:07:36;;;;;;;;;;;;;;;18.27;70.51;101552.97;7408160;19;1850;-55
2022/04/30 00:10:05;;;;;;;;;;;;;;;18.27;70.49;101552.97;7410443;19;1546;-55
2022/04/30 00:12:36;;;;;;;;;;;;;;;18.26;70.50;101553.97;7409652;19;1611;-55
2022/04/30 00:15:05;;;;;;;;;;;;;;;18.29;70.13;101556.41;7410465;19;1526;-61
2022/04/30 00:17:33;;;;;;;;;;;;;;;18.25;70.48;101552.22;7410081;19;1504;-55
2022/04/30 00:20:03;;;;;;;;;;;;;;;18.25;70.48;101565.63;7407083;19;1551;-55
2022/04/30 00:22:31;;;;;;;;;;;;;;;18.25;70.38;101541.53;7408683;19;1546;-55
2022/04/30 00:25:00;;;;;;;;;;;;;;;18.24;70.22;101563.94;7409823;19;1476;-55
2022/04/30 00:27:28;;;;;;;;;;;;;;;18.24;70.37;101569.28;7408345;19;1854;-55
2022/04/30 00:29:59;;;;;;;;;;;;;;;18.24;70.39;101571.97;7410570;19;1598;-55
2022/04/30 00:32:28;;;;;;;;;;;;;;;18.24;70.34;101558.56;7408607;19;1758;-61
2022/04/30 00:34:56;;;;;;;;;;;;;;;18.22;70.47;101565.84;7409062;19;1570;-55
2022/04/30 00:37:26;;;;;;;;;;;;;;;18.23;70.24;101575.59;7408873;19;1507;-56
2022/04/30 00:39:54;;;;;;;;;;;;;;;18.24;69.83;101555.00;7407414;19;1631;-55
2022/04/30 00:42:23;;;;;;;;;;;;;;;18.23;69.84;101556.00;7408834;19;1642;-55
2022/04/30 00:44:51;;;;;;;;;;;;;;;18.22;70.19;101551.59;7407924;19;1243;-55
2022/04/30 00:47:22;;;;;;;;;;;;;;;18.23;69.79;101578.25;7406546;19;1845;-61
2022/04/30 00:49:51;;;;;;;;;;;;;;;18.26;69.81;101570.03;7408082;19;1559;-55
2022/04/30 00:52:19;;;;;;;;;;;;;;;18.21;70.15;101574.00;7408643;19;1520;-61
2022/04/30 00:54:50;;;;;;;;;;;;;;;18.24;69.76;101565.72;7408599;19;1653;-61
2022/04/30 00:57:20;;;;;;;;;;;;;;;18.23;70.00;101572.91;7408223;19;1591;-61
2022/04/30 00:59:50;;;;;;;;;;;;;;;18.24;69.98;101574.63;7408191;19;1465;-61
2022/04/30 01:02:19;;;;;;;;;;;;;;;18.23;69.97;101566.72;7405280;19;1754;-55
2022/04/30 01:04:50;;;;;;;;;;;;;;;18.21;70.12;101568.66;7407294;19;1627;-61
2022/04/30 01:07:18;;;;;;;;;;;;;;;18.22;69.68;101565.84;7407714;19;1849;-61
2022/04/30 01:09:49;;;;;;;;;;;;;;;18.22;69.48;101559.63;7407897;19;1644;-55
2022/04/30 01:12:17;;;;;;;;;;;;;;;18.22;69.38;101557.84;7408082;19;1538;-55
2022/04/30 01:14:47;;;;;;;;;;;;;;;18.19;70.24;101563.41;7407525;19;1678;-55
2022/04/30 01:17:16;;;;;;;;;;;;;;;18.18;70.05;101550.97;7407338;19;1741;-61
2022/04/30 01:19:47;;;;;;;;;;;;;;;18.18;69.92;101548.28;7406510;19;1531;-61
2022/04/30 01:22:22;;;;;;;;;;;;;;;18.18;69.92;101553.63;7407596;19;1562;-61
2022/04/30 01:24:55;;;;;;;;;;;;;;;18.20;69.61;101548.19;7408062;19;1676;-55
2022/04/30 01:27:26;;;;;;;;;;;;;;;18.18;70.01;101563.50;7406958;19;1865;-61
2022/04/30 01:29:55;;;;;;;;;;;;;;;18.20;69.61;101553.53;7408416;19;1508;-55
2022/04/30 01:37:52;;;;;;;;;;;;;;;18.15;69.74;101545.84;7407311;19;1505;-61
2022/04/30 01:40:23;;;;;;;;;;;;;;;18.18;69.88;101542.94;7406789;19;1469;-55
2022/04/30 01:42:52;;;;;;;;;;;;;;;18.15;69.72;101551.19;7406351;19;1736;-55
2022/04/30 01:45:21;;;;;;;;;;;;;;;18.16;69.40;101550.22;7406706;19;1433;-56
2022/04/30 01:47:49;;;;;;;;;;;;;;;18.14;69.90;101536.09;7405426;19;1855;-56
2022/04/30 01:50:18;;;;;;;;;;;;;;;18.16;69.59;101539.50;7406034;19;1562;-61
2022/04/30 01:52:46;;;;;;;;;;;;;;;18.15;69.38;101543.16;7406259;19;1507;-56
2022/04/30 01:55:14;;;;;;;;;;;;;;;18.18;68.97;101552.78;7406630;19;1534;-55
2022/04/30 01:57:46;;;;;;;;;;;;;;;18.17;69.33;101545.75;7406769;19;1734;-61
2022/04/30 02:00:20;;;;;;;;;;;;;;;18.13;69.07;101539.75;7406848;19;1600;-61
2022/04/30 02:02:49;;;;;;;;;;;;;;;18.16;69.41;101546.69;7394995;19;1471;-55
2022/04/30 02:05:19;;;;;;;;;;;;;;;18.14;69.16;101541.44;7404124;19;1544;-55
2022/04/30 02:07:49;;;;;;;;;;;;;;;18.14;69.76;101545.94;7404359;19;1846;-61
2022/04/30 02:10:20;;;;;;;;;;;;;;;18.13;69.17;101531.72;7406115;19;1602;-61
2022/04/30 02:12:52;;;;;;;;;;;;;;;18.11;69.49;101525.63;7406162;19;1670;-55
2022/04/30 02:15:21;;;;;;;;;;;;;;;18.14;68.98;101544.13;7405789;19;1535;-55
2022/04/30 02:17:50;;;;;;;;;;;;;;;18.13;68.99;101529.03;7405021;19;1758;-61
2022/04/30 02:20:22;;;;;;;;;;;;;;;18.20;69.09;101530.28;7405698;19;1610;-61
2022/04/30 02:22:51;;;;;;;;;;;;;;;18.21;68.79;101537.38;7406430;19;1610;-55
2022/04/30 02:25:21;;;;;;;;;;;;;;;18.17;69.33;101519.81;7405880;19;1553;-55
2022/04/30 02:27:53;;;;;;;;;;;;;;;18.14;69.20;101530.72;7405396;19;1845;-61
2022/04/30 02:30:22;;;;;;;;;;;;;;;18.12;69.38;101518.44;7405394;19;1743;-61
2022/04/30 02:32:51;;;;;;;;;;;;;;;18.12;68.99;101521.97;7404647;19;1617;-55
2022/04/30 02:35:20;;;;;;;;;;;;;;;18.11;69.33;101525.63;7404167;19;1504;-55
2022/04/30 02:37:50;;;;;;;;;;;;;;;18.12;69.08;101527.31;7405099;19;1510;-55
2022/04/30 02:40:18;;;;;;;;;;;;;;;18.13;69.39;101518.34;7405319;19;1451;-55
2022/04/30 02:42:47;;;;;;;;;;;;;;;18.13;69.51;101525.50;7405069;19;1553;-55
2022/04/30 02:45:18;;;;;;;;;;;;;;;18.11;69.43;101519.41;7403845;19;1654;-55
2022/04/30 02:47:52;;;;;;;;;;;;;;;18.11;69.05;101530.13;7403184;19;1854;-60
2022/04/30 02:50:22;;;;;;;;;;;;;;;18.05;69.13;101518.88;7403934;19;1533;-55
2022/04/30 02:52:51;;;;;;;;;;;;;;;18.10;69.34;101529.25;7404216;19;1779;-61
2022/04/30 02:55:19;;;;;;;;;;;;;;;18.10;69.03;101518.53;7403902;19;1556;-61
2022/04/30 03:00:34;;;;;;;;;;;;;;;18.12;69.01;101524.63;7401692;19;1642;-55
2022/04/30 03:03:02;;;;;;;;;;;;;;;18.11;68.87;101525.63;7401581;19;1469;-61
2022/04/30 03:05:31;;;;;;;;;;;;;;;18.08;69.06;101517.78;7403527;19;1728;-61
2022/04/30 03:08:00;;;;;;;;;;;;;;;18.12;69.11;101530.00;7401739;19;1865;-61
2022/04/30 03:10:28;;;;;;;;;;;;;;;18.11;68.56;101527.44;7404082;19;1507;-55
2022/04/30 03:12:57;;;;;;;;;;;;;;;18.11;68.79;101530.97;7404453;19;1500;-61
2022/04/30 03:15:27;;;;;;;;;;;;;;;18.07;69.03;101533.00;7404360;19;1505;-55
2022/04/30 03:23:20;;;;;;;;;;;;;;;18.07;69.19;101524.13;7403935;19;1402;-61
2022/04/30 03:25:48;;;;;;;;;;;;;;;18.07;68.90;101529.47;7402917;19;1304;-61
2022/04/30 03:28:17;;;;;;;;;;;;;;;18.04;68.78;101527.00;7403162;19;1849;-55
2022/04/30 03:30:46;;;;;;;;;;;;;;;18.06;68.71;101543.81;7402859;19;1246;-55
2022/04/30 03:33:17;;;;;;;;;;;;;;;18.08;68.70;101544.56;7404079;19;1375;-54
2022/04/30 03:35:46;;;;;;;;;;;;;;;18.05;68.62;101531.41;7402159;19;1285;-61
2022/04/30 03:38:14;;;;;;;;;;;;;;;18.04;69.05;101540.41;7402528;19;1377;-55
2022/04/30 03:40:42;;;;;;;;;;;;;;;18.05;68.78;101537.63;7402536;19;1345;-61
2022/04/30 03:43:11;;;;;;;;;;;;;;;18.02;69.16;101542.31;7402151;19;1315;-55
2022/04/30 03:45:41;;;;;;;;;;;;;;;18.02;69.13;101553.03;7402779;19;1320;-55
2022/04/30 03:48:10;;;;;;;;;;;;;;;18.01;68.81;101551.34;7401958;19;1858;-55
2022/04/30 03:50:41;;;;;;;;;;;;;;;18.05;68.86;101555.50;7402759;19;1602;-62
2022/04/30 03:53:10;;;;;;;;;;;;;;;18.04;68.59;101549.28;7402508;19;1533;-55
2022/04/30 03:55:38;;;;;;;;;;;;;;;18.05;68.85;101555.50;7401514;19;1514;-55
2022/04/30 03:58:07;;;;;;;;;;;;;;;18.08;68.42;101552.59;7402989;19;1506;-55
2022/04/30 04:00:36;;;;;;;;;;;;;;;18.08;68.55;101564.19;7403587;19;1055;-61
2022/04/30 04:03:06;;;;;;;;;;;;;;;18.08;68.95;101563.28;7400814;19;1751;-55
2022/04/30 04:05:34;;;;;;;;;;;;;;;18.11;68.73;101563.09;7401809;19;1691;-61
2022/04/30 04:08:10;;;;;;;;;;;;;;;18.14;68.77;101548.63;7399791;19;1846;-55
2022/04/30 04:10:40;;;;;;;;;;;;;;;18.16;68.07;101554.72;7398975;19;1441;-55
2022/04/30 04:18:30;;;;;;;;;;;;;;;18.22;68.05;101560.50;7403824;19;1545;-55
2022/04/30 04:20:59;;;;;;;;;;;;;;;18.23;68.64;101556.00;7409610;19;1541;-61
2022/04/30 04:25:58;;;;;;;;;;;;;;;18.23;68.63;101570.22;7410583;19;1523;-55
2022/04/30 04:26:16;;;;;;;;;;;;;;;18.24;68.47;101565.72;7408390;19;1608;-55
2022/04/30 04:28:44;;;;;;;;;;;;;;;18.22;68.31;101564.97;7409043;19;1857;-55
2022/04/30 04:31:13;;;;;;;;;;;;;;;18.27;67.99;101570.88;7407709;19;1757;-61
2022/04/30 04:33:41;;;;;;;;;;;;;;;18.37;68.17;101568.38;7408519;19;1670;-67
2022/04/30 04:36:10;;;;;;;;;;;;;;;18.42;67.90;101566.22;7406586;19;1552;-68
2022/04/30 04:38:41;;;;;;;;;;;;;;;18.34;68.55;101558.72;7407318;19;1192;-68
2022/04/30 04:41:09;;;;;;;;;;;;;;;18.31;68.80;101561.66;7407914;19;1365;-60
2022/04/30 04:43:37;;;;;;;;;;;;;;;18.37;68.30;101579.09;7408320;19;1299;-60
2022/04/30 04:46:06;;;;;;;;;;;;;;;18.32;68.75;101566.03;7408609;19;1290;-67
2022/04/30 04:48:35;;;;;;;;;;;;;;;18.34;68.46;101579.31;7407997;19;1853;-55
2022/04/30 04:51:04;;;;;;;;;;;;;;;18.43;68.42;101562.56;7406909;19;1749;-56
2022/04/30 04:53:32;;;;;;;;;;;;;;;18.47;68.53;101574.78;7408342;19;1625;-57
2022/04/30 04:56:06;;;;;;;;;;;;;;;18.38;68.25;101576.31;7406546;19;1379;-59
2022/04/30 04:58:34;;;;;;;;;;;;;;;18.37;68.55;101574.59;7404746;19;1596;-58
2022/04/30 05:01:02;;;;;;;;;;;;;;;18.41;68.50;101572.56;7405812;19;1531;-57
2022/04/30 05:03:31;;;;;;;;;;;;;;;18.42;68.63;101571.56;7408153;19;1449;-57
2022/04/30 05:05:59;;;;;;;;;;;;;;;18.44;68.65;101583.03;7409006;19;1561;-56
2022/04/30 05:08:27;;;;;;;;;;;;;;;18.52;68.61;101587.81;7406187;19;1845;-56
2022/04/30 05:10:56;;;;;;;;;;;;;;;18.46;68.14;101575.72;7406531;19;1547;-56
2022/04/30 05:13:27;;;;;;;;;;;;;;;18.54;68.53;101594.75;7407380;19;1586;-62
2022/04/30 05:15:55;;;;;;;;;;;;;;;18.58;68.72;101590.03;7407077;19;1195;-62
2022/04/30 05:18:23;;;;;;;;;;;;;;;18.60;69.08;101596.16;7408594;19;1593;-62
2022/04/30 05:20:53;;;;;;;;;;;;;;;18.64;70.42;101577.06;7408026;19;1517;-63
2022/04/30 05:23:21;;;;;;;;;;;;;;;18.66;72.74;101577.81;7406367;19;1438;-63
2022/04/30 05:25:50;;;;;;;;;;;;;;;18.69;73.42;101584.75;7404467;19;1551;-62
2022/04/30 05:28:18;;;;;;;;;;;;;;;18.74;73.18;101579.94;7407206;19;1865;-60
2022/04/30 05:30:49;;;;;;;;;;;;;;;19.13;73.63;101579.75;7406387;19;1621;-53
2022/04/30 05:33:17;;;;;;;;;;;;;;;19.20;72.88;101572.94;7405510;19;1461;-49
2022/04/30 05:35:46;;;;;;;;;;;;;;;19.31;73.85;101575.66;7404481;19;1622;-54
2022/04/30 05:38:14;;;;;;;;;;;;;;;19.40;72.71;101585.69;7406534;19;1456;-57
2022/04/30 05:40:43;;;;;;;;;;;;;;;19.46;72.69;101579.84;7407656;19;1539;-59
2022/04/30 05:43:11;;;;;;;;;;;;;;;19.48;72.82;101583.25;7406170;19;1764;-61
2022/04/30 05:45:39;;;;;;;;;;;;;;;19.51;73.97;101578.63;7407436;19;1532;-50
2022/04/30 05:48:11;;;;;;;;;;;;;;;19.51;72.79;101574.13;7405525;19;1850;-60
2022/04/30 05:50:40;;;;;;;;;;;;;;;19.43;72.12;101585.44;7406106;19;1523;-52
2022/04/30 05:53:08;;;;;;;;;;;;;;;19.21;70.59;101574.66;7405142;19;1765;-58
2022/04/30 05:55:36;;;;;;;;;;;;;;;19.15;71.49;101585.84;7403455;19;1556;-59
2022/04/30 05:58:05;;;;;;;;;;;;;;;19.10;70.69;101588.00;7405588;19;1520;-60
2022/04/30 06:00:33;;;;;;;;;;;;;;;19.17;70.44;101583.91;7407228;19;1740;-59
2022/04/30 06:03:01;;;;;;;;;;;;;;;19.27;69.81;101606.38;7404578;19;1625;-59
2022/04/30 06:05:32;;;;;;;;;;;;;;;19.22;69.81;101597.84;7405454;19;1559;-59
2022/04/30 06:08:01;;;;;;;;;;;;;;;19.12;69.84;101596.78;7404419;19;1347;-58
2022/04/30 06:10:29;;;;;;;;;;;;;;;19.07;69.88;101600.69;7403999;19;1861;-53
2022/04/30 06:12:57;;;;;;;;;;;;;;;19.06;70.05;101593.63;7406434;19;1621;-55
2022/04/30 06:15:26;;;;;;;;;;;;;;;19.05;70.72;101589.22;7406655;19;1297;-54
2022/04/30 06:17:54;;;;;;;;;;;;;;;19.18;71.34;101602.56;7403035;19;1715;-57
2022/04/30 06:20:23;;;;;;;;;;;;;;;19.21;70.20;101606.84;7402150;19;1772;-54
2022/04/30 06:22:54;;;;;;;;;;;;;;;19.26;69.88;101612.72;7404154;19;1528;-54
2022/04/30 06:25:23;;;;;;;;;;;;;;;19.28;68.96;101600.03;7404652;19;1514;-55
2022/04/30 06:27:51;;;;;;;;;;;;;;;19.29;69.00;101601.75;7404029;19;1556;-54
2022/04/30 06:30:20;;;;;;;;;;;;;;;19.16;69.13;101591.09;7401943;19;1850;-54
2022/04/30 06:32:48;;;;;;;;;;;;;;;19.04;69.30;101590.22;7401305;19;1289;-54
2022/04/30 06:35:17;;;;;;;;;;;;;;;19.02;69.26;101586.78;7402643;19;1615;-54
2022/04/30 06:37:45;;;;;;;;;;;;;;;19.01;69.07;101585.06;7398380;19;1615;-54
2022/04/30 06:40:16;;;;;;;;;;;;;;;19.02;69.55;101594.84;7400201;19;1614;-63
2022/04/30 06:42:45;;;;;;;;;;;;;;;19.01;69.31;101598.47;7404305;19;1545;-54
2022/04/30 06:45:14;;;;;;;;;;;;;;;18.97;69.26;101594.31;7401890;19;1539;-54
2022/04/30 06:47:42;;;;;;;;;;;;;;;18.97;69.64;101572.88;7404916;19;1587;-54
2022/04/30 06:50:11;;;;;;;;;;;;;;;18.98;69.72;101582.63;7403809;19;1842;-55
2022/04/30 06:57:07;;;;;;;;;;;;;;;18.97;69.69;101583.59;7404775;19;1623;-54
2022/04/30 06:58:15;;;;;;;;;;;;;;;18.97;69.65;101588.94;7404141;19;1536;-63
2022/04/30 07:03:27;;;;;;;;;;;;;;;18.96;69.44;101603.34;7406984;19;875;-63
2022/04/30 07:06:03;;;;;;;;;;;;;;;18.95;69.30;101585.53;7404717;19;1426;-62
2022/04/30 07:08:31;;;;;;;;;;;;;;;18.97;69.48;101596.13;7403671;19;1842;-54
2022/04/30 07:11:03;;;;;;;;;;;;;;;18.95;69.58;101585.53;7403012;19;1555;-54
2022/04/30 07:13:32;;;;;;;;;;;;;;;18.95;69.82;101584.69;7404074;19;1209;-54
2022/04/30 07:16:03;;;;;;;;;;;;;;;18.93;69.89;101584.78;7403920;19;1579;-63
2022/04/30 07:18:32;;;;;;;;;;;;;;;18.94;69.91;101585.63;7404805;19;1550;-54
2022/04/30 07:21:00;;;;;;;;;;;;;;;18.98;69.93;101589.78;7403553;19;1347;-54
2022/04/30 07:23:30;;;;;;;;;;;;;;;18.99;69.55;101595.03;7404962;19;1557;-54
2022/04/30 07:25:58;;;;;;;;;;;;;;;18.97;69.89;101594.31;7402374;19;1204;-63
2022/04/30 07:28:30;;;;;;;;;;;;;;;18.93;69.91;101587.47;7402199;19;1521;-55
2022/04/30 07:30:59;;;;;;;;;;;;;;;18.94;69.66;101610.63;7400437;19;1846;-54
2022/04/30 07:33:27;;;;;;;;;;;;;;;18.95;69.65;101585.53;7404038;19;1790;-55
2022/04/30 07:35:56;;;;;;;;;;;;;;;18.92;70.14;101593.81;7401753;19;1371;-54
2022/04/30 07:38:24;;;;;;;;;;;;;;;18.94;69.76;101593.69;7403577;19;1650;-54
2022/04/30 07:40:53;;;;;;;;;;;;;;;18.93;69.99;101603.53;7403842;19;1645;-62
2022/04/30 07:43:22;;;;;;;;;;;;;;;18.91;69.73;101596.59;7403448;19;1552;-63
2022/04/30 07:45:53;;;;;;;;;;;;;;;18.91;69.64;101592.09;7404060;19;1550;-63
2022/04/30 07:48:22;;;;;;;;;;;;;;;18.90;69.75;101598.44;7405134;19;1616;-63
2022/04/30 07:50:52;;;;;;;;;;;;;;;18.89;69.71;101586.00;7409047;19;1837;-55
2022/04/30 07:53:20;;;;;;;;;;;;;;;18.90;69.68;101593.06;7410511;19;1667;-54
2022/04/30 07:55:49;;;;;;;;;;;;;;;18.88;69.95;101589.66;7409394;19;1573;-63
2022/04/30 07:58:17;;;;;;;;;;;;;;;18.88;69.97;101593.19;7410178;19;1437;-54
2022/04/30 08:00:45;;;;;;;;;;;;;;;18.89;69.58;101583.31;7410393;19;1525;-62
2022/04/30 08:03:16;;;;;;;;;;;;;;;18.85;69.76;101593.41;7407893;19;1548;-62
2022/04/30 08:05:44;;;;;;;;;;;;;;;18.85;69.86;101581.81;7410139;19;1670;-63
2022/04/30 08:08:13;;;;;;;;;;;;;;;18.84;69.86;101596.19;7408574;19;1608;-63
2022/04/30 08:10:41;;;;;;;;;;;;;;;18.84;69.69;101593.50;7407656;19;1854;-55
2022/04/30 08:13:09;;;;;;;;;;;;;;;18.85;70.07;101579.16;7409813;19;1444;-62
2022/04/30 08:15:43;;;;;;;;;;;;;;;18.86;69.98;101596.94;7410999;19;1518;-63
2022/04/30 08:18:11;;;;;;;;;;;;;;;18.87;69.79;101590.59;7410303;19;1550;-62
2022/04/30 08:20:43;;;;;;;;;;;;;;;18.90;69.84;101577.00;7407927;19;1426;-56
2022/04/30 08:23:11;;;;;;;;;;;;;;;18.86;69.90;101597.81;7409696;19;1522;-54
2022/04/30 08:25:39;;;;;;;;;;;;;;;18.87;69.95;101582.56;7409430;19;1367;-62
2022/04/30 08:28:08;;;;;;;;;;;;;;;18.88;69.89;101587.81;7409898;19;1425;-62
2022/04/30 08:30:36;;;;;;;;;;;;;;;18.89;69.55;101569.91;7407102;19;1845;-54
2022/04/30 08:33:05;;;;;;;;;;;;;;;18.90;69.92;101574.31;7410789;19;1562;-63
2022/04/30 08:35:33;;;;;;;;;;;;;;;18.87;70.03;101564.66;7410119;19;1647;-62
2022/04/30 08:38:04;;;;;;;;;;;;;;;18.87;70.03;101574.53;7407956;19;1532;-63
2022/04/30 08:40:32;;;;;;;;;;;;;;;18.87;69.96;101569.16;7409375;19;1547;-54
2022/04/30 08:43:08;;;;;;;;;;;;;;;18.88;69.86;101562.84;7410785;19;998;-62
2022/04/30 08:45:38;;;;;;;;;;;;;;;18.87;69.96;101559.28;7409351;19;1503;-54
2022/04/30 08:48:07;;;;;;;;;;;;;;;18.88;70.13;101554.81;7409109;19;1363;-54
2022/04/30 08:50:36;;;;;;;;;;;;;;;18.88;69.97;101557.50;7406622;19;1867;-62
2022/04/30 08:53:07;;;;;;;;;;;;;;;18.86;69.53;101554.03;7408930;19;1386;-54
2022/04/30 08:55:36;;;;;;;;;;;;;;;18.88;69.45;101566.38;7408719;19;1772;-62
2022/04/30 08:58:05;;;;;;;;;;;;;;;18.89;69.94;101561.88;7408643;19;1545;-54
2022/04/30 09:00:33;;;;;;;;;;;;;;;18.85;69.53;101557.72;7405979;19;1555;-54
2022/04/30 09:03:02;;;;;;;;;;;;;;;18.86;69.58;101556.72;7408050;19;1413;-55
2022/04/30 09:05:35;;;;;;;;;;;;;;;18.88;70.16;101568.22;7407896;19;1752;-62
2022/04/30 09:08:04;;;;;;;;;;;;;;;18.83;70.06;101565.84;7406514;19;1622;-55
2022/04/30 09:10:35;;;;;;;;;;;;;;;18.85;70.24;101563.06;7408306;19;1843;-54
2022/04/30 09:13:08;;;;;;;;;;;;;;;18.85;69.69;101553.19;7408740;19;1538;-55
2022/04/30 09:15:36;;;;;;;;;;;;;;;18.83;69.61;101554.28;7407790;19;1458;-62
2022/04/30 09:18:06;;;;;;;;;;;;;;;18.86;69.71;101559.41;7407630;19;1686;-62
2022/04/30 09:20:43;;;;;;;;;;;;;;;18.84;69.53;101542.59;7406783;19;1553;-54
2022/04/30 09:23:12;;;;;;;;;;;;;;;18.86;69.83;101565.66;7406658;19;1645;-54
2022/04/30 09:25:53;;;;;;;;;;;;;;;18.83;69.68;101551.63;7406448;19;1544;-54
2022/04/30 09:28:28;;;;;;;;;;;;;;;18.81;69.63;101542.84;7407880;19;1366;-62
2022/04/30 09:31:09;;;;;;;;;;;;;;;18.80;69.94;101533.94;7405950;19;1857;-62
2022/04/30 09:33:37;;;;;;;;;;;;;;;18.81;70.16;101545.53;7408897;19;1676;-63
2022/04/30 09:38:47;;;;;;;;;;;;;;;18.79;69.65;101529.53;7408358;19;1409;-54
2022/04/30 09:41:23;;;;;;;;;;;;;;;18.82;70.21;101544.53;7407243;19;1454;-54
2022/04/30 09:44:00;;;;;;;;;;;;;;;18.82;69.49;101541.84;7406807;19;1689;-54
2022/04/30 09:46:28;;;;;;;;;;;;;;;18.80;69.73;101542.00;7406945;19;1663;-55
2022/04/30 09:54:20;;;;;;;;;;;;;;;18.80;69.47;101533.94;7406385;19;1474;-55
2022/04/30 09:56:52;;;;;;;;;;;;;;;18.76;69.56;101527.09;7406170;19;1563;-55
2022/04/30 09:59:24;;;;;;;;;;;;;;;18.78;69.78;101540.34;7406821;19;1237;-63
2022/04/30 10:01:54;;;;;;;;;;;;;;;18.77;69.48;101533.28;7404841;19;1502;-55
2022/04/30 10:04:23;;;;;;;;;;;;;;;18.80;70.00;101549.16;7407170;19;1623;-56
2022/04/30 10:06:53;;;;;;;;;;;;;;;18.76;69.78;101531.56;7406925;19;1664;-63
2022/04/30 10:09:22;;;;;;;;;;;;;;;18.72;69.63;101522.03;7405628;19;1860;-63
2022/04/30 10:12:00;;;;;;;;;;;;;;;18.76;70.09;101531.56;7405121;19;1481;-55
2022/04/30 10:14:33;;;;;;;;;;;;;;;18.76;69.70;101526.19;7405634;19;1369;-55
2022/04/30 10:17:16;;;;;;;;;;;;;;;18.73;70.15;101534.50;7404914;19;1463;-65
2022/04/30 10:19:45;;;;;;;;;;;;;;;18.73;69.84;101518.41;7405730;19;1539;-55
2022/04/30 10:22:15;;;;;;;;;;;;;;;18.71;70.27;101531.06;7405905;19;1623;-55
2022/04/30 10:24:44;;;;;;;;;;;;;;;18.71;70.01;101506.97;7406922;19;969;-55
2022/04/30 10:27:16;;;;;;;;;;;;;;;18.71;70.04;101523.03;7405936;19;1587;-55
2022/04/30 10:29:55;;;;;;;;;;;;;;;18.69;69.81;101510.59;7405008;19;1868;-55
2022/04/30 10:32:30;;;;;;;;;;;;;;;18.66;69.99;101500.13;7405187;19;1789;-63
2022/04/30 10:34:58;;;;;;;;;;;;;;;18.66;69.90;101507.28;7405733;19;1355;-63
2022/04/30 10:37:30;;;;;;;;;;;;;;;18.69;69.79;101507.91;7405011;19;1532;-63
2022/04/30 10:39:59;;;;;;;;;;;;;;;18.67;69.84;101496.47;7406853;19;946;-63
2022/04/30 10:42:42;;;;;;;;;;;;;;;18.65;69.83;101505.59;7405439;19;1766;-63
2022/04/30 10:45:15;;;;;;;;;;;;;;;18.68;69.95;101503.53;7404615;19;1793;-63
2022/04/30 10:47:54;;;;;;;;;;;;;;;18.64;69.89;101501.19;7405258;19;1752;-55
2022/04/30 10:50:23;;;;;;;;;;;;;;;18.66;70.12;101505.47;7404217;19;1857;-63
2022/04/30 10:52:54;;;;;;;;;;;;;;;18.67;69.57;101495.63;7404762;19;1558;-55
2022/04/30 10:55:22;;;;;;;;;;;;;;;18.69;70.08;101510.59;7404954;19;1352;-63
2022/04/30 10:57:53;;;;;;;;;;;;;;;18.65;69.82;101494.88;7404824;19;1528;-55
2022/04/30 11:00:22;;;;;;;;;;;;;;;18.65;69.84;101497.56;7404683;19;1702;-55
2022/04/30 11:02:51;;;;;;;;;;;;;;;18.65;69.74;101495.72;7403340;19;1602;-63
2022/04/30 11:05:22;;;;;;;;;;;;;;;18.65;70.00;101490.38;7403557;19;1634;-63
2022/04/30 11:07:50;;;;;;;;;;;;;;;18.66;69.83;101494.78;7404082;19;1369;-62
2022/04/30 11:10:19;;;;;;;;;;;;;;;18.67;70.06;101487.56;7403272;19;1848;-63
2022/04/30 11:12:47;;;;;;;;;;;;;;;18.66;69.65;101500.13;7404897;19;1573;-55
2022/04/30 11:15:18;;;;;;;;;;;;;;;18.63;70.17;101494.97;7404400;19;1678;-63
2022/04/30 11:17:48;;;;;;;;;;;;;;;18.65;70.17;101500.22;7404594;19;1643;-58
2022/04/30 11:20:23;;;;;;;;;;;;;;;18.64;69.81;101495.81;7402511;19;1686;-63
2022/04/30 11:22:54;;;;;;;;;;;;;;;18.65;70.19;101498.41;7403955;19;1580;-63
2022/04/30 11:25:23;;;;;;;;;;;;;;;18.63;69.74;101488.78;7411194;19;1276;-63
2022/04/30 11:27:58;;;;;;;;;;;;;;;18.61;69.86;101478.16;7412090;19;1544;-55
2022/04/30 11:30:29;;;;;;;;;;;;;;;18.64;70.05;101488.66;7411352;19;1851;-55
2022/04/30 11:32:58;;;;;;;;;;;;;;;18.64;69.79;101469.91;7412334;19;1764;-55
2022/04/30 11:35:26;;;;;;;;;;;;;;;18.64;69.74;101477.97;7411264;19;1694;-55
2022/04/30 11:37:56;;;;;;;;;;;;;;;18.64;70.11;101477.97;7411878;19;1543;-63
2022/04/30 11:40:25;;;;;;;;;;;;;;;18.64;69.74;101471.72;7411086;19;1222;-63
2022/04/30 11:42:57;;;;;;;;;;;;;;;18.67;69.99;101474.19;7412655;19;947;-63
2022/04/30 11:45:26;;;;;;;;;;;;;;;18.65;69.76;101476.13;7411611;19;1443;-54
2022/04/30 11:47:57;;;;;;;;;;;;;;;18.66;69.66;101469.78;7411024;19;1732;-55
2022/04/30 11:50:27;;;;;;;;;;;;;;;18.68;70.03;101470.50;7410039;19;1857;-55
2022/04/30 11:52:55;;;;;;;;;;;;;;;18.65;70.02;101474.28;7411126;19;1561;-56
2022/04/30 11:55:24;;;;;;;;;;;;;;;18.69;69.61;101467.72;7410739;19;1571;-63
2022/04/30 11:57:52;;;;;;;;;;;;;;;18.70;69.60;101457.84;7411424;19;1551;-63
2022/04/30 12:00:21;;;;;;;;;;;;;;;18.69;69.57;101466.88;7410841;19;1774;-54
2022/04/30 12:02:51;;;;;;;;;;;;;;;18.65;69.90;101458.22;7406890;19;1528;-55
2022/04/30 12:05:22;;;;;;;;;;;;;;;18.67;70.08;101452.75;7410236;19;1622;-63
2022/04/30 12:07:50;;;;;;;;;;;;;;;18.65;69.63;101455.53;7410687;19;1579;-63
2022/04/30 12:10:20;;;;;;;;;;;;;;;18.64;70.05;101452.97;7409281;19;1861;-55
2022/04/30 12:12:50;;;;;;;;;;;;;;;18.66;69.94;101451.91;7411043;19;1615;-55
2022/04/30 12:15:19;;;;;;;;;;;;;;;18.63;69.67;101453.94;7410174;19;1691;-63
2022/04/30 12:24:40;;;;;;;;;;;;;;;18.63;70.20;101453.94;7410511;19;1547;-55
2022/04/30 12:26:05;;;;;;;;;;;;;;;18.63;70.20;101445.91;7408888;19;1384;-62
2022/04/30 12:28:45;;;;;;;;;;;;;;;18.61;69.71;101440.66;7409660;19;1576;-55
2022/04/30 12:31:13;;;;;;;;;;;;;;;18.63;69.70;101435.19;7407616;19;1861;-55
2022/04/30 12:33:45;;;;;;;;;;;;;;;18.60;69.74;101444.34;7409385;19;1545;-63
2022/04/30 12:36:17;;;;;;;;;;;;;;;18.61;70.10;101410.34;7407169;19;1378;-55
2022/04/30 12:38:54;;;;;;;;;;;;;;;18.63;70.29;101436.06;7409099;19;1561;-63
2022/04/30 12:41:23;;;;;;;;;;;;;;;18.62;70.12;101429.00;7408958;19;1617;-63
2022/04/30 12:43:51;;;;;;;;;;;;;;;18.62;69.75;101433.47;7408231;19;1590;-63
2022/04/30 12:46:22;;;;;;;;;;;;;;;18.60;69.72;101430.94;7409098;19;1543;-63
2022/04/30 12:48:51;;;;;;;;;;;;;;;18.60;70.22;101420.22;7410515;19;931;-55
2022/04/30 12:51:22;;;;;;;;;;;;;;;18.62;69.77;101418.28;7407797;19;1849;-55
2022/04/30 12:53:50;;;;;;;;;;;;;;;18.64;70.11;101429.75;7408550;19;1556;-63
2022/04/30 12:56:18;;;;;;;;;;;;;;;18.63;69.76;101413.78;7407742;19;1354;-55
2022/04/30 12:58:47;;;;;;;;;;;;;;;18.64;69.99;101415.47;7407606;19;1673;-55
2022/04/30 13:01:15;;;;;;;;;;;;;;;18.60;69.86;101414.88;7407323;19;1651;-63
2022/04/30 13:03:44;;;;;;;;;;;;;;;18.64;69.51;101421.69;7409889;19;1008;-63
2022/04/30 13:06:12;;;;;;;;;;;;;;;18.64;69.54;101415.47;7407996;19;1746;-63
2022/04/30 13:14:05;;;;;;;;;;;;;;;18.64;69.89;101410.09;7408417;19;1280;-63
2022/04/30 13:16:34;;;;;;;;;;;;;;;18.64;69.92;101405.63;7407499;19;1402;-63
2022/04/30 13:19:02;;;;;;;;;;;;;;;18.63;69.90;101403.91;7408975;19;1621;-63
2022/04/30 13:21:30;;;;;;;;;;;;;;;18.63;69.99;101398.53;7407778;19;1631;-55
2022/04/30 13:24:01;;;;;;;;;;;;;;;18.65;69.50;101404.63;7408345;19;1214;-63
2022/04/30 13:26:29;;;;;;;;;;;;;;;18.65;69.50;101401.13;7407632;19;1363;-55
2022/04/30 13:28:58;;;;;;;;;;;;;;;18.64;69.90;101394.91;7406656;19;1344;-63
2022/04/30 13:31:26;;;;;;;;;;;;;;;18.68;69.93;101393.69;7407007;19;1860;-55
2022/04/30 13:33:54;;;;;;;;;;;;;;;18.69;69.97;101403.44;7408241;19;1608;-63
2022/04/30 13:36:22;;;;;;;;;;;;;;;18.68;69.92;101385.66;7407457;19;1697;-55
2022/04/30 13:38:51;;;;;;;;;;;;;;;18.67;69.44;101389.31;7407233;19;1556;-63
2022/04/30 13:41:22;;;;;;;;;;;;;;;18.67;69.77;101383.94;7407398;19;1409;-63
2022/04/30 13:43:50;;;;;;;;;;;;;;;18.65;69.83;101380.53;7407457;19;1660;-60